Time,TemperatureF,DewpointF,PressureIn,WindDirection,WindDirectionDegrees,WindSpeedMPH,WindSpeedGustMPH,Humidity,HourlyPrecipIn,Conditions,Clouds,dailyrainin,SoftwareType,DateUTC
2013-05-23 05:40:00,55.9,53.9,29.93,SW,226,2.0,2.0,93,0.00,,,0.00,Wunderground v.1.15,2013-05-23 10:40:00,
2013-05-23 05:45:00,55.7,54.0,29.93,SW,218,1.0,2.0,94,0.00,,,0.00,Wunderground v.1.15,2013-05-23 10:45:00,
2013-05-23 05:50:00,55.7,54.0,29.93,SW,235,1.0,3.0,94,0.00,,,0.00,Wunderground v.1.15,2013-05-23 10:50:00,
2013-05-23 05:55:00,55.6,53.9,29.94,SSW,203,2.0,3.0,94,0.00,,,0.00,Wunderground v.1.15,2013-05-23 10:55:00,
2013-05-23 06:00:00,55.6,54.2,29.94,WSW,241,3.0,3.0,95,0.00,,,0.00,Wunderground v.1.15,2013-05-23 11:00:00,
2013-05-23 06:10:00,55.6,54.2,29.94,WSW,249,2.0,3.0,95,0.00,,,0.00,Wunderground v.1.15,2013-05-23 11:10:00,
2013-05-23 06:20:00,55.6,54.2,29.94,NW,304,1.0,3.0,95,0.00,,,0.00,Wunderground v.1.15,2013-05-23 11:20:00,
2013-05-23 06:25:00,55.6,54.2,29.94,WNW,283,2.0,3.0,95,0.00,,,0.00,Wunderground v.1.15,2013-05-23 11:25:00,
2013-05-23 06:30:00,55.6,54.2,29.95,WSW,252,2.0,2.0,95,0.00,,,0.00,Wunderground v.1.15,2013-05-23 11:30:00,
2013-05-23 06:40:00,55.6,54.5,29.95,NNW,338,1.0,3.0,96,0.00,,,0.00,Wunderground v.1.15,2013-05-23 11:40:00,
2013-05-23 06:55:00,55.7,54.6,29.95,WSW,240,2.0,2.0,96,0.00,,,0.00,Wunderground v.1.15,2013-05-23 11:55:00,
2013-05-23 07:00:00,55.8,54.7,29.96,WSW,245,1.0,1.0,96,0.00,,,0.00,Wunderground v.1.15,2013-05-23 12:00:00,
2013-05-23 07:10:00,55.8,54.7,29.96,WSW,248,1.0,2.0,96,0.00,,,0.00,Wunderground v.1.15,2013-05-23 12:10:00,
2013-05-23 07:15:00,55.9,54.8,29.96,SW,229,1.0,2.0,96,0.00,,,0.00,Wunderground v.1.15,2013-05-23 12:15:00,
2013-05-23 07:20:00,55.9,54.8,29.97,WSW,249,2.0,2.0,96,0.00,,,0.00,Wunderground v.1.15,2013-05-23 12:20:00,
2013-05-23 07:30:00,56.1,55.0,29.97,West,274,1.0,4.0,96,0.00,,,0.00,Wunderground v.1.15,2013-05-23 12:30:00,
2013-05-23 07:40:00,56.3,55.2,29.97,WNW,302,1.0,2.0,96,0.00,,,0.00,Wunderground v.1.15,2013-05-23 12:40:00,
2013-05-23 07:45:00,56.4,55.3,29.98,SW,232,2.0,3.0,96,0.00,,,0.00,Wunderground v.1.15,2013-05-23 12:45:00,
2013-05-23 07:55:00,56.6,55.5,29.98,SSW,192,1.0,2.0,96,0.00,,,0.00,Wunderground v.1.15,2013-05-23 12:55:00,
2013-05-23 08:00:00,56.6,55.5,29.98,SSW,213,1.0,1.0,96,0.00,,,0.00,Wunderground v.1.15,2013-05-23 13:00:00,
2013-05-23 08:10:00,56.8,55.7,29.99,WSW,238,1.0,1.0,96,0.00,,,0.00,Wunderground v.1.15,2013-05-23 13:10:00,
2013-05-23 08:20:00,57.1,56.0,29.99,West,267,1.0,2.0,96,0.00,,,0.00,Wunderground v.1.15,2013-05-23 13:20:00,
2013-05-23 08:30:00,57.3,56.2,30.00,SW,235,2.0,2.0,96,0.00,,,0.00,Wunderground v.1.15,2013-05-23 13:30:00,
2013-05-23 08:40:00,57.7,56.6,30.00,WSW,255,1.0,1.0,96,0.00,,,0.01,Wunderground v.1.15,2013-05-23 13:40:00,
2013-05-23 08:45:00,57.8,56.7,30.01,North,5,1.0,2.0,96,0.00,,,0.01,Wunderground v.1.15,2013-05-23 13:45:00,
2013-05-23 08:55:00,57.5,56.1,30.01,NNE,20,4.0,4.0,95,0.00,,,0.01,Wunderground v.1.15,2013-05-23 13:55:00,
2013-05-23 09:00:00,57.5,56.1,30.01,North,355,3.0,4.0,95,0.00,,,0.01,Wunderground v.1.15,2013-05-23 14:00:00,
2013-05-23 09:10:00,57.1,55.4,30.02,NE,41,7.0,17.0,94,0.00,,,0.02,Wunderground v.1.15,2013-05-23 14:10:00,
2013-05-23 09:15:00,56.7,55.0,30.03,North,354,12.0,17.0,94,0.00,,,0.02,Wunderground v.1.15,2013-05-23 14:15:00,
2013-05-23 09:25:00,56.6,54.9,30.03,NNE,20,13.0,13.0,94,0.00,,,0.02,Wunderground v.1.15,2013-05-23 14:25:00,
2013-05-23 09:30:00,56.5,54.5,30.04,NNE,27,12.0,18.0,93,0.00,,,0.02,Wunderground v.1.15,2013-05-23 14:30:00,
2013-05-23 09:35:00,56.0,54.3,30.04,NE,44,12.0,18.0,94,0.00,,,0.02,Wunderground v.1.15,2013-05-23 14:35:00,
2013-05-23 09:45:00,56.0,54.3,30.05,NNE,23,12.0,13.0,94,0.00,,,0.02,Wunderground v.1.15,2013-05-23 14:45:00,
2013-05-23 09:55:00,56.3,54.6,30.05,NE,36,9.0,14.0,94,0.00,,,0.02,Wunderground v.1.15,2013-05-23 14:55:00,
2013-05-23 10:00:00,56.5,54.8,30.06,NNE,12,9.0,10.0,94,0.00,,,0.02,Wunderground v.1.15,2013-05-23 15:00:00,
2013-05-23 10:10:00,56.6,54.9,30.07,NNE,15,9.0,9.0,94,0.00,,,0.02,Wunderground v.1.15,2013-05-23 15:10:00,
2013-05-23 10:15:00,56.5,54.8,30.07,NE,44,9.0,12.0,94,0.00,,,0.02,Wunderground v.1.15,2013-05-23 15:15:00,
2013-05-23 10:20:00,56.6,54.9,30.07,NNE,23,10.0,10.0,94,0.00,,,0.02,Wunderground v.1.15,2013-05-23 15:20:00,
2013-05-23 10:30:00,56.3,54.6,30.08,NE,36,9.0,11.0,94,0.00,,,0.02,Wunderground v.1.15,2013-05-23 15:30:00,
2013-05-23 10:40:00,56.3,54.9,30.08,NNE,15,9.0,11.0,95,0.00,,,0.02,Wunderground v.1.15,2013-05-23 15:40:00,
2013-05-23 10:50:00,56.7,54.7,30.09,North,354,8.0,8.0,93,0.00,,,0.02,Wunderground v.1.15,2013-05-23 15:50:00,
2013-05-23 10:55:00,56.9,54.6,30.09,North,358,8.0,8.0,92,0.00,,,0.02,Wunderground v.1.15,2013-05-23 15:55:00,
2013-05-23 11:00:00,57.2,54.9,30.09,NNE,28,7.0,7.0,92,0.00,,,0.02,Wunderground v.1.15,2013-05-23 16:00:00,
2013-05-23 11:10:00,56.6,54.0,30.10,NNE,32,9.0,9.0,91,0.00,,,0.02,Wunderground v.1.15,2013-05-23 16:10:00,
2013-05-23 11:20:00,55.9,53.9,30.11,North,4,10.0,10.0,93,0.00,,,0.02,Wunderground v.1.15,2013-05-23 16:20:00,
2013-05-23 11:30:00,56.2,54.2,30.12,NE,37,7.0,10.0,93,0.00,,,0.02,Wunderground v.1.15,2013-05-23 16:30:00,
2013-05-23 11:35:00,56.3,54.0,30.12,NE,36,8.0,10.0,92,0.00,,,0.02,Wunderground v.1.15,2013-05-23 16:35:00,
2013-05-23 11:45:00,57.1,53.9,30.13,NNE,23,9.0,10.0,89,0.00,,,0.02,Wunderground v.1.15,2013-05-23 16:45:00,
2013-05-23 11:50:00,57.5,54.3,30.13,NNE,17,8.0,8.0,89,0.00,,,0.02,Wunderground v.1.15,2013-05-23 16:50:00,
2013-05-23 12:00:00,57.7,53.9,30.13,NNW,346,8.0,8.0,87,0.00,,,0.02,Wunderground v.1.15,2013-05-23 17:00:00,
2013-05-23 12:10:00,57.8,54.0,30.13,NE,39,11.0,11.0,87,0.00,,,0.02,Wunderground v.1.15,2013-05-23 17:10:00,
2013-05-23 12:15:00,58.3,53.8,30.13,NE,45,11.0,11.0,85,0.00,,,0.02,Wunderground v.1.15,2013-05-23 17:15:00,
2013-05-23 12:20:00,58.4,53.9,30.12,NNE,12,11.0,16.0,85,0.00,,,0.02,Wunderground v.1.15,2013-05-23 17:20:00,
2013-05-23 12:30:00,59.3,54.5,30.12,ENE,63,11.0,11.0,84,0.00,,,0.02,Wunderground v.1.15,2013-05-23 17:30:00,
2013-05-23 12:35:00,59.4,53.6,30.13,NE,41,12.0,13.0,81,0.00,,,0.02,Wunderground v.1.15,2013-05-23 17:35:00,
2013-05-23 12:45:00,59.1,53.9,30.13,NE,34,12.0,13.0,83,0.00,,,0.02,Wunderground v.1.15,2013-05-23 17:45:00,
2013-05-23 12:55:00,59.5,54.3,30.14,North,8,11.0,12.0,83,0.00,,,0.02,Wunderground v.1.15,2013-05-23 17:55:00,
2013-05-23 13:00:00,60.1,54.2,30.14,NNE,15,11.0,11.0,81,0.00,,,0.02,Wunderground v.1.15,2013-05-23 18:00:00,
2013-05-23 13:10:00,60.1,53.2,30.14,NNE,23,14.0,14.0,78,0.00,,,0.02,Wunderground v.1.15,2013-05-23 18:10:00,
2013-05-23 13:20:00,60.0,52.4,30.15,NE,36,9.0,11.0,76,0.00,,,0.02,Wunderground v.1.15,2013-05-23 18:20:00,
2013-05-23 13:30:00,60.6,53.3,30.16,North,6,11.0,11.0,77,0.00,,,0.02,Wunderground v.1.15,2013-05-23 18:30:00,
2013-05-23 13:40:00,61.1,52.4,30.17,North,8,10.0,16.0,73,0.00,,,0.02,Wunderground v.1.15,2013-05-23 18:40:00,
2013-05-23 13:45:00,61.2,52.1,30.17,North,358,11.0,16.0,72,0.00,,,0.02,Wunderground v.1.15,2013-05-23 18:45:00,
2013-05-23 13:55:00,61.3,52.2,30.17,NE,52,14.0,14.0,72,0.00,,,0.02,Wunderground v.1.15,2013-05-23 18:55:00,
2013-05-23 14:00:00,61.3,51.8,30.17,NE,46,12.0,12.0,71,0.00,,,0.02,Wunderground v.1.15,2013-05-23 19:00:00,
2013-05-23 14:10:00,60.8,52.8,30.18,North,10,9.0,10.0,75,0.00,,,0.02,Wunderground v.1.15,2013-05-23 19:10:00,
2013-05-23 14:15:00,61.0,51.5,30.18,NNE,29,11.0,11.0,71,0.00,,,0.02,Wunderground v.1.15,2013-05-23 19:15:00,
2013-05-23 14:25:00,60.9,52.2,30.18,NNE,30,11.0,13.0,73,0.00,,,0.02,Wunderground v.1.15,2013-05-23 19:25:00,
2013-05-23 14:30:00,61.2,51.3,30.19,NE,41,11.0,12.0,70,0.00,,,0.02,Wunderground v.1.15,2013-05-23 19:30:00,
2013-05-23 14:35:00,61.4,51.1,30.19,NNE,23,11.0,15.0,69,0.00,,,0.02,Wunderground v.1.15,2013-05-23 19:35:00,
2013-05-23 14:45:00,61.2,51.7,30.19,NNE,22,11.0,11.0,71,0.00,,,0.02,Wunderground v.1.15,2013-05-23 19:45:00,
2013-05-23 14:50:00,61.1,52.0,30.20,NNE,27,10.0,11.0,72,0.00,,,0.02,Wunderground v.1.15,2013-05-23 19:50:00,
2013-05-23 14:55:00,61.3,51.8,30.19,NE,45,10.0,11.0,71,0.00,,,0.02,Wunderground v.1.15,2013-05-23 19:55:00,
2013-05-23 15:00:00,61.7,52.6,30.19,NE,45,8.0,9.0,72,0.00,,,0.02,Wunderground v.1.15,2013-05-23 20:00:00,
2013-05-23 15:10:00,61.5,51.6,30.20,NNW,340,8.0,8.0,70,0.00,,,0.02,Wunderground v.1.15,2013-05-23 20:10:00,
2013-05-23 15:20:00,61.8,51.1,30.20,North,356,9.0,9.0,68,0.00,,,0.02,Wunderground v.1.15,2013-05-23 20:20:00,
2013-05-23 15:30:00,61.9,51.6,30.20,NNE,17,8.0,9.0,69,0.00,,,0.02,Wunderground v.1.15,2013-05-23 20:30:00,
2013-05-23 15:40:00,61.6,51.3,30.21,North,11,12.0,12.0,69,0.00,,,0.02,Wunderground v.1.15,2013-05-23 20:40:00,
2013-05-23 15:45:00,61.7,52.2,30.21,NE,52,9.0,12.0,71,0.00,,,0.02,Wunderground v.1.15,2013-05-23 20:45:00,
2013-05-23 15:55:00,61.8,52.3,30.21,NNE,27,10.0,14.0,71,0.00,,,0.02,Wunderground v.1.15,2013-05-23 20:55:00,
2013-05-23 16:00:00,61.8,51.5,30.21,NE,52,11.0,14.0,69,0.00,,,0.02,Wunderground v.1.15,2013-05-23 21:00:00,
2013-05-23 16:10:00,61.2,51.3,30.22,North,1,10.0,10.0,70,0.00,,,0.02,Wunderground v.1.15,2013-05-23 21:10:00,
2013-05-23 16:15:00,61.4,52.3,30.22,NE,41,8.0,10.0,72,0.00,,,0.02,Wunderground v.1.15,2013-05-23 21:15:00,
2013-05-23 16:25:00,61.3,51.8,30.22,NE,41,11.0,13.0,71,0.00,,,0.02,Wunderground v.1.15,2013-05-23 21:25:00,
2013-05-23 16:35:00,61.6,51.7,30.22,NE,43,10.0,12.0,70,0.00,,,0.02,Wunderground v.1.15,2013-05-23 21:35:00,
2013-05-23 16:45:00,61.8,51.9,30.23,NNE,19,9.0,10.0,70,0.00,,,0.02,Wunderground v.1.15,2013-05-23 21:45:00,
2013-05-23 16:50:00,61.7,51.4,30.23,NE,37,10.0,10.0,69,0.00,,,0.02,Wunderground v.1.15,2013-05-23 21:50:00,
2013-05-23 17:00:00,61.6,51.3,30.23,NNE,30,11.0,11.0,69,0.00,,,0.02,Wunderground v.1.15,2013-05-23 22:00:00,
2013-05-23 17:10:00,61.6,51.3,30.24,North,6,12.0,12.0,69,0.00,,,0.02,Wunderground v.1.15,2013-05-23 22:10:00,
2013-05-23 17:20:00,62.0,52.1,30.24,NE,34,9.0,9.0,70,0.00,,,0.02,Wunderground v.1.15,2013-05-23 22:20:00,
2013-05-23 17:30:00,62.2,51.5,30.24,NE,44,9.0,9.0,68,0.00,,,0.02,Wunderground v.1.15,2013-05-23 22:30:00,
2013-05-23 17:35:00,62.2,50.3,30.24,ENE,60,9.0,11.0,65,0.00,,,0.02,Wunderground v.1.15,2013-05-23 22:35:00,
2013-05-23 17:45:00,62.3,50.4,30.24,NE,51,10.0,12.0,65,0.00,,,0.02,Wunderground v.1.15,2013-05-23 22:45:00,
2013-05-23 17:50:00,62.3,52.0,30.25,NNE,27,9.0,9.0,69,0.00,,,0.02,Wunderground v.1.15,2013-05-23 22:50:00,
2013-05-23 17:55:00,62.2,50.7,30.25,NNE,32,8.0,9.0,66,0.00,,,0.02,Wunderground v.1.15,2013-05-23 22:55:00,
2013-05-23 18:00:00,62.0,51.3,30.24,NE,36,9.0,10.0,68,0.00,,,0.02,Wunderground v.1.15,2013-05-23 23:00:00,
2013-05-23 18:10:00,62.0,51.3,30.25,NE,49,8.0,10.0,68,0.00,,,0.02,Wunderground v.1.15,2013-05-23 23:10:00,
2013-05-23 18:20:00,61.6,51.7,30.25,NE,39,9.0,9.0,70,0.00,,,0.02,Wunderground v.1.15,2013-05-23 23:20:00,
2013-05-23 18:25:00,61.8,50.7,30.25,NE,44,8.0,9.0,67,0.00,,,0.02,Wunderground v.1.15,2013-05-23 23:25:00,
2013-05-23 18:35:00,61.9,51.6,30.25,ENE,64,9.0,9.0,69,0.00,,,0.02,Wunderground v.1.15,2013-05-23 23:35:00,
2013-05-23 18:45:00,61.4,51.5,30.25,NNE,32,9.0,9.0,70,0.00,,,0.02,Wunderground v.1.15,2013-05-23 23:45:00,
2013-05-23 18:55:00,61.4,52.3,30.26,ENE,64,6.0,8.0,72,0.00,,,0.02,Wunderground v.1.15,2013-05-23 23:55:00,
2013-05-23 19:00:00,61.3,51.4,30.26,ENE,65,6.0,8.0,70,0.00,,,0.02,Wunderground v.1.15,2013-05-24 00:00:00,
2013-05-23 19:10:00,61.2,51.3,30.26,ENE,64,6.0,10.0,70,0.00,,,0.02,Wunderground v.1.15,2013-05-24 00:10:00,
2013-05-23 19:15:00,60.7,50.5,30.26,NE,41,8.0,10.0,69,0.00,,,0.02,Wunderground v.1.15,2013-05-24 00:15:00,
2013-05-23 19:25:00,60.4,51.3,30.27,ENE,63,6.0,8.0,72,0.00,,,0.02,Wunderground v.1.15,2013-05-24 00:25:00,
2013-05-23 19:35:00,60.1,51.4,30.27,NE,55,7.0,7.0,73,0.00,,,0.02,Wunderground v.1.15,2013-05-24 00:35:00,
2013-05-23 19:40:00,59.9,51.2,30.27,ENE,71,6.0,6.0,73,0.00,,,0.02,Wunderground v.1.15,2013-05-24 00:40:00,
2013-05-23 19:45:00,59.7,51.4,30.27,ENE,60,5.0,6.0,74,0.00,,,0.02,Wunderground v.1.15,2013-05-24 00:45:00,
2013-05-23 19:55:00,59.3,51.0,30.27,NE,56,5.0,6.0,74,0.00,,,0.02,Wunderground v.1.15,2013-05-24 00:55:00,
2013-05-23 20:00:00,59.1,51.2,30.27,NE,50,5.0,5.0,75,0.00,,,0.02,Wunderground v.1.15,2013-05-24 01:00:00,
2013-05-23 20:10:00,58.5,51.3,30.28,ENE,68,2.0,2.0,77,0.00,,,0.02,Wunderground v.1.15,2013-05-24 01:10:00,
2013-05-23 20:15:00,58.0,51.2,30.28,ENE,68,1.0,2.0,78,0.00,,,0.02,Wunderground v.1.15,2013-05-24 01:15:00,
2013-05-23 20:25:00,57.0,50.9,30.28,ENE,68,0.0,0.0,80,0.00,,,0.02,Wunderground v.1.15,2013-05-24 01:25:00,
2013-05-23 20:30:00,56.5,51.1,30.28,ENE,68,0.0,0.0,82,0.00,,,0.02,Wunderground v.1.15,2013-05-24 01:30:00,
2013-05-23 20:35:00,55.9,50.8,30.29,ENE,68,0.0,0.0,83,0.00,,,0.02,Wunderground v.1.15,2013-05-24 01:35:00,
2013-05-23 20:45:00,54.9,50.5,30.29,ENE,68,0.0,0.0,85,0.00,,,0.02,Wunderground v.1.15,2013-05-24 01:45:00,
2013-05-23 20:55:00,54.2,50.4,30.29,NE,47,0.0,0.0,87,0.00,,,0.02,Wunderground v.1.15,2013-05-24 01:55:00,
2013-05-23 21:00:00,54.2,50.4,30.29,NE,50,0.0,0.0,87,0.00,,,0.02,Wunderground v.1.15,2013-05-24 02:00:00,
2013-05-23 21:10:00,55.1,50.7,30.30,ENE,71,2.0,2.0,85,0.00,,,0.02,Wunderground v.1.15,2013-05-24 02:10:00,